No particular awareness of the weather is required.    There are no Weather-warnings


Meteo18 Weather Cam more information Meteo18 Weather Cam


Thunder radar more information blitzortung!


Rain radar more information rain snow radar


Visit our other weather sites:

Template documentation
and downloads

And another site



Weather Underground History page Text

Daily Summary for January 9, 2017 Units:  English    Metric   Both
« Previous Day
Next Day »
Daily Weekly Monthly Yearly Custom
  High: Low: Average:
Temperature: 41.9 °F 34.3 °F 37.9 °F
Dew Point: 41.4 °F 33.8 °F 37.4 °F
Humidity: 98 % 98 % 98 %
Wind Speed: 10 mph 0 mph 2.2 mph
Wind Gust: 14 mph - -
Wind:- - SW
Pressure: 30.5 in 30.1 in -
Precipitation: 0.06 in    
Historical Graphs
 
 
Tabular Data for January 9, 2017
Time Temperature Dew Point Pressure Wind Wind Speed Wind Gust Humidity Rainfall Rate (Hourly)
00:02 35.6 °F 35.1 °F 30.5 in Calm   1 mph 98 % 0 in
00:07 35.8 °F 35.2 °F 30.5 in WNW 1 mph 1 mph 98 % 0 in
00:12 35.6 °F 35.1 °F 30.5 in Calm   2 mph 98 % 0 in
00:17 35.6 °F 35.1 °F 30.5 in Calm   2 mph 98 % 0 in
00:22 35.8 °F 35.2 °F 30.5 in Calm   2 mph 98 % 0 in
00:27 35.8 °F 35.2 °F 30.5 in Calm   2 mph 98 % 0 in
00:32 35.8 °F 35.2 °F 30.5 in Calm     98 % 0 in
00:42 35.2 °F 34.7 °F 30.5 in Calm   4 mph 98 % 0 in
00:52 35.2 °F 34.7 °F 30.5 in Calm   6 mph 98 % 0 in
00:57 35.2 °F 34.7 °F 30.5 in Calm   6 mph 98 % 0 in
01:02 35.2 °F 34.7 °F 30.5 in Calm   4 mph 98 % 0 in
01:07 35.2 °F 34.7 °F 30.5 in Calm   1 mph 98 % 0 in
01:12 35.1 °F 34.5 °F 30.5 in Calm   1 mph 98 % 0 in
01:17 35.1 °F 34.5 °F 30.5 in Calm   1 mph 98 % 0 in
01:22 35.1 °F 34.5 °F 30.5 in SW 1 mph 1 mph 98 % 0 in
01:27 35.1 °F 34.5 °F 30.5 in Calm   1 mph 98 % 0 in
01:32 35.1 °F 34.5 °F 30.5 in Calm   1 mph 98 % 0 in
01:37 35.2 °F 34.7 °F 30.5 in SSW 1 mph 1 mph 98 % 0 in
01:42 35.2 °F 34.7 °F 30.5 in Calm   2 mph 98 % 0 in
01:47 35.2 °F 34.7 °F 30.5 in Calm   2 mph 98 % 0 in
01:52 35.2 °F 34.7 °F 30.5 in Calm   2 mph 98 % 0 in
01:57 35.1 °F 34.5 °F 30.5 in Calm   1 mph 98 % 0 in
02:02 35.1 °F 34.5 °F 30.5 in Calm     98 % 0 in
02:07 34.9 °F 34.3 °F 30.5 in Calm     98 % 0 in
02:12 34.9 °F 34.3 °F 30.5 in NE 1 mph 2 mph 98 % 0 in
02:17 34.9 °F 34.3 °F 30.5 in Calm   2 mph 98 % 0 in
02:22 34.9 °F 34.3 °F 30.5 in Calm   3 mph 98 % 0 in
02:27 34.7 °F 34.2 °F 30.5 in Calm   3 mph 98 % 0 in
02:32 34.9 °F 34.3 °F 30.5 in Calm   1 mph 98 % 0 in
02:37 34.7 °F 34.2 °F 30.5 in Calm   1 mph 98 % 0 in
02:42 34.7 °F 34.2 °F 30.5 in Calm   1 mph 98 % 0 in
02:47 34.9 °F 34.3 °F 30.5 in Calm   2 mph 98 % 0 in
02:52 34.9 °F 34.3 °F 30.5 in SSW 1 mph 2 mph 98 % 0 in
02:57 34.7 °F 34.2 °F 30.5 in West 1 mph 2 mph 98 % 0 in
03:02 34.9 °F 34.3 °F 30.5 in Calm   2 mph 98 % 0 in
03:07 34.9 °F 34.3 °F 30.5 in Calm   2 mph 98 % 0 in
03:12 34.9 °F 34.3 °F 30.5 in Calm   2 mph 98 % 0 in
03:17 34.9 °F 34.3 °F 30.5 in Calm   1 mph 98 % 0 in
03:22 34.9 °F 34.3 °F 30.5 in Calm   1 mph 98 % 0 in
03:27 34.9 °F 34.3 °F 30.5 in Calm     98 % 0 in
03:32 34.9 °F 34.3 °F 30.5 in Calm     98 % 0 in
03:37 34.9 °F 34.3 °F 30.5 in Calm     98 % 0 in
03:42 34.9 °F 34.3 °F 30.5 in Calm     98 % 0 in
03:47 34.9 °F 34.3 °F 30.5 in Calm     98 % 0 in
03:52 34.7 °F 34.2 °F 30.5 in Calm     98 % 0 in
03:57 34.5 °F 34 °F 30.5 in Calm     98 % 0 in
04:02 34.5 °F 34 °F 30.5 in Calm     98 % 0 in
04:07 34.5 °F 34 °F 30.5 in Calm     98 % 0 in
04:12 34.5 °F 34 °F 30.5 in West 1 mph   98 % 0 in
04:17 34.5 °F 34 °F 30.5 in Calm   2 mph 98 % 0 in
04:22 34.5 °F 34 °F 30.5 in Calm   2 mph 98 % 0 in
04:32 34.5 °F 34 °F 30.5 in Calm     98 % 0 in
04:42 34.5 °F 34 °F 30.4 in Calm     98 % 0 in
04:47 34.5 °F 34 °F 30.4 in Calm     98 % 0 in
04:52 34.5 °F 34 °F 30.4 in Calm     98 % 0 in
04:57 34.5 °F 34 °F 30.4 in Calm     98 % 0 in
05:02 34.5 °F 34 °F 30.4 in Calm     98 % 0 in
05:12 34.5 °F 34 °F 30.4 in Calm     98 % 0 in
05:17 34.5 °F 34 °F 30.4 in Calm     98 % 0 in
05:22 34.5 °F 34 °F 30.4 in Calm     98 % 0 in
05:27 34.5 °F 34 °F 30.4 in Calm     98 % 0 in
05:32 34.3 °F 33.8 °F 30.4 in Calm   2 mph 98 % 0 in
05:37 34.3 °F 33.8 °F 30.4 in West 1 mph 2 mph 98 % 0 in
05:42 34.3 °F 33.8 °F 30.4 in Calm   2 mph 98 % 0 in
05:47 34.3 °F 33.8 °F 30.4 in Calm   1 mph 98 % 0 in
05:52 34.3 °F 33.8 °F 30.4 in Calm   1 mph 98 % 0 in
05:57 34.3 °F 33.8 °F 30.4 in Calm     98 % 0 in
06:02 34.5 °F 34 °F 30.4 in Calm     98 % 0 in
06:07 34.5 °F 34 °F 30.4 in Calm     98 % 0 in
06:17 34.3 °F 33.8 °F 30.4 in Calm     98 % 0 in
06:22 34.5 °F 34 °F 30.4 in SW 1 mph   98 % 0 in
06:27 34.5 °F 34 °F 30.4 in Calm     98 % 0 in
06:32 34.3 °F 33.8 °F 30.4 in Calm   2 mph 98 % 0 in
06:37 34.3 °F 33.8 °F 30.4 in Calm   2 mph 98 % 0 in
06:42 34.5 °F 34 °F 30.4 in Calm   2 mph 98 % 0 in
06:52 34.5 °F 34 °F 30.4 in Calm     98 % 0 in
06:57 34.5 °F 34 °F 30.4 in Calm     98 % 0 in
07:02 34.5 °F 34 °F 30.4 in Calm     98 % 0 in
07:12 34.5 °F 34 °F 30.4 in Calm     98 % 0 in
07:17 34.5 °F 34 °F 30.4 in Calm     98 % 0 in
07:22 34.5 °F 34 °F 30.4 in Calm     98 % 0 in
07:32 34.5 °F 34 °F 30.4 in Calm     98 % 0 in
07:37 34.5 °F 34 °F 30.4 in Calm     98 % 0 in
07:42 34.9 °F 34.3 °F 30.4 in Calm     98 % 0 in
07:47 34.9 °F 34.3 °F 30.4 in Calm     98 % 0 in
07:52 34.9 °F 34.3 °F 30.4 in Calm     98 % 0 in
07:57 34.9 °F 34.3 °F 30.4 in Calm     98 % 0 in
08:02 34.9 °F 34.3 °F 30.4 in SSW 1 mph 2 mph 98 % 0 in
08:07 35.1 °F 34.5 °F 30.4 in Calm   2 mph 98 % 0 in
08:12 35.1 °F 34.5 °F 30.4 in Calm   2 mph 98 % 0 in
08:17 35.1 °F 34.5 °F 30.4 in Calm   2 mph 98 % 0 in
08:22 35.1 °F 34.5 °F 30.4 in Calm     98 % 0 in
08:27 35.1 °F 34.5 °F 30.4 in Calm     98 % 0 in
08:32 35.1 °F 34.5 °F 30.4 in Calm     98 % 0 in
08:37 35.1 °F 34.5 °F 30.4 in Calm     98 % 0 in
08:42 35.2 °F 34.7 °F 30.4 in Calm     98 % 0 in
08:47 35.2 °F 34.7 °F 30.4 in Calm     98 % 0 in
08:52 35.4 °F 34.9 °F 30.4 in Calm   6 mph 98 % 0 in
08:57 35.6 °F 35.1 °F 30.4 in West 1 mph 6 mph 98 % 0 in
09:02 35.6 °F 35.1 °F 30.4 in WSW 2 mph 6 mph 98 % 0 in
09:12 35.8 °F 35.2 °F 30.4 in SW 2 mph 4 mph 98 % 0 in
09:22 36.1 °F 35.6 °F 30.4 in West 1 mph 4 mph 98 % 0 in
09:27 36.1 °F 35.6 °F 30.4 in WSW 2 mph 4 mph 98 % 0 in
09:32 36.1 °F 35.6 °F 30.4 in SW 3 mph 4 mph 98 % 0 in
09:37 36.1 °F 35.6 °F 30.4 in SSW 2 mph 5 mph 98 % 0 in
09:42 36.1 °F 35.6 °F 30.4 in SSE 2 mph 7 mph 98 % 0 in
09:52 36.1 °F 35.6 °F 30.4 in WSW 1 mph 7 mph 98 % 0 in
09:57 36.1 °F 35.6 °F 30.4 in Calm   5 mph 98 % 0 in
10:02 36.1 °F 35.6 °F 30.4 in WSW 1 mph 5 mph 98 % 0 in
10:07 36.3 °F 35.8 °F 30.4 in SW 4 mph 6 mph 98 % 0 in
10:12 36.3 °F 35.8 °F 30.4 in SSW 2 mph 6 mph 98 % 0 in
10:17 36.3 °F 35.8 °F 30.4 in SSW 4 mph 6 mph 98 % 0 in
10:22 36.3 °F 35.8 °F 30.4 in SSW 1 mph 5 mph 98 % 0 in
10:27 36.5 °F 36 °F 30.4 in SSW 3 mph 5 mph 98 % 0 in
10:32 36.5 °F 36 °F 30.4 in South 2 mph 5 mph 98 % 0 in
10:37 36.5 °F 36 °F 30.4 in SSW 3 mph 5 mph 98 % 0 in
10:42 36.7 °F 36.1 °F 30.4 in SW 3 mph 4 mph 98 % 0 in
10:47 36.7 °F 36.1 °F 30.4 in SW 3 mph 7 mph 98 % 0 in
10:52 36.7 °F 36.1 °F 30.4 in SSW 5 mph 7 mph 98 % 0 in
10:57 36.7 °F 36.1 °F 30.4 in SW 3 mph 7 mph 98 % 0 in
11:02 36.9 °F 36.3 °F 30.4 in SSW 5 mph 7 mph 98 % 0 in
11:07 36.9 °F 36.3 °F 30.4 in South 5 mph 8 mph 98 % 0 in
11:17 37 °F 36.5 °F 30.4 in SSW 4 mph 8 mph 98 % 0 in
11:22 37 °F 36.5 °F 30.4 in SW 4 mph 8 mph 98 % 0 in
11:27 37.2 °F 36.7 °F 30.4 in SW 5 mph 7 mph 98 % 0 in
11:32 37.2 °F 36.7 °F 30.4 in SSW 5 mph 7 mph 98 % 0 in
11:37 37.4 °F 36.9 °F 30.4 in SSW 3 mph 7 mph 98 % 0 in
11:42 37.6 °F 37 °F 30.4 in SW 5 mph 7 mph 98 % 0 in
11:47 37.4 °F 36.9 °F 30.4 in SSW 5 mph 7 mph 98 % 0 in
11:52 37.6 °F 37 °F 30.4 in SW 5 mph 8 mph 98 % 0 in
11:57 37.6 °F 37 °F 30.4 in SSW 1 mph 8 mph 98 % 0 in
12:02 37.6 °F 37 °F 30.4 in SW 5 mph 8 mph 98 % 0 in
12:07 37.8 °F 37.2 °F 30.4 in South 3 mph 7 mph 98 % 0 in
12:12 37.8 °F 37.2 °F 30.4 in SW 6 mph 7 mph 98 % 0 in
12:17 37.9 °F 37.4 °F 30.4 in SW 5 mph 7 mph 98 % 0 in
12:22 37.9 °F 37.4 °F 30.4 in SSW 5 mph 7 mph 98 % 0 in
12:27 37.9 °F 37.4 °F 30.4 in SSW 5 mph 8 mph 98 % 0 in
12:32 38.1 °F 37.6 °F 30.4 in SSW 5 mph 8 mph 98 % 0 in
12:42 38.5 °F 37.9 °F 30.4 in WSW 3 mph 7 mph 98 % 0 in
12:47 38.5 °F 37.9 °F 30.4 in SW 3 mph 7 mph 98 % 0 in
12:57 38.5 °F 37.9 °F 30.4 in SW 5 mph 7 mph 98 % 0 in
13:02 38.7 °F 38.1 °F 30.4 in SW 5 mph 7 mph 98 % 0 in
13:07 38.7 °F 38.1 °F 30.4 in South 4 mph 7 mph 98 % 0 in
13:12 38.8 °F 38.3 °F 30.4 in SW 5 mph 7 mph 98 % 0 in
13:17 38.8 °F 38.3 °F 30.4 in SW 3 mph 8 mph 98 % 0 in
13:22 39 °F 38.5 °F 30.4 in South 2 mph 8 mph 98 % 0 in
13:27 39.2 °F 38.7 °F 30.4 in SSW 5 mph 8 mph 98 % 0 in
13:32 39.2 °F 38.7 °F 30.4 in South 3 mph 6 mph 98 % 0 in
13:37 39.4 °F 38.8 °F 30.4 in SSW 2 mph 8 mph 98 % 0 in
13:42 39.4 °F 38.8 °F 30.3 in SSW 1 mph 8 mph 98 % 0 in
13:47 39.6 °F 39 °F 30.3 in WSW 4 mph 8 mph 98 % 0 in
13:52 39.6 °F 39 °F 30.3 in SW 3 mph 7 mph 98 % 0 in
13:57 39.7 °F 39.2 °F 30.3 in SSW 2 mph 7 mph 98 % 0 in
14:02 39.9 °F 39.4 °F 30.3 in Calm   7 mph 98 % 0 in
14:07 39.9 °F 39.4 °F 30.3 in SW 2 mph 6 mph 98 % 0 in
14:12 40.3 °F 39.7 °F 30.3 in SW 4 mph 5 mph 98 % 0 in
14:17 40.3 °F 39.7 °F 30.3 in SSW 4 mph 6 mph 98 % 0.01 in
14:22 40.5 °F 39.9 °F 30.3 in WSW 8 mph 8 mph 98 % 0.01 in
14:27 40.5 °F 39.9 °F 30.3 in SSW 2 mph 8 mph 98 % 0.01 in
14:32 40.5 °F 39.9 °F 30.3 in WSW 1 mph 8 mph 98 % 0.01 in
14:37 40.5 °F 39.9 °F 30.3 in WSW 3 mph 8 mph 98 % 0.01 in
14:42 40.6 °F 40.1 °F 30.3 in South 2 mph 8 mph 98 % 0.01 in
14:47 40.6 °F 40.1 °F 30.3 in SW 6 mph 7 mph 98 % 0.02 in
14:52 40.8 °F 40.3 °F 30.3 in South 3 mph 7 mph 98 % 0.02 in
14:57 40.8 °F 40.3 °F 30.3 in SW 8 mph 8 mph 98 % 0.02 in
15:02 40.8 °F 40.3 °F 30.3 in SW 6 mph 8 mph 98 % 0.02 in
15:07 40.8 °F 40.3 °F 30.3 in SW 3 mph 8 mph 98 % 0.02 in
15:12 40.8 °F 40.3 °F 30.3 in SW 4 mph 9 mph 98 % 0.02 in
15:17 41 °F 40.5 °F 30.3 in SSW 3 mph 9 mph 98 % 0.01 in
15:22 41 °F 40.5 °F 30.3 in West 4 mph 6 mph 98 % 0.01 in
15:27 41.2 °F 40.6 °F 30.3 in SW 4 mph 7 mph 98 % 0.01 in
15:32 41.2 °F 40.6 °F 30.3 in SSW 5 mph 10 mph 98 % 0.01 in
15:37 41.2 °F 40.6 °F 30.3 in WSW 7 mph 10 mph 98 % 0.01 in
15:42 41.2 °F 40.6 °F 30.3 in SSW 1 mph 10 mph 98 % 0.01 in
15:47 41.2 °F 40.6 °F 30.3 in West 2 mph 9 mph 98 % 0 in
15:52 41.2 °F 40.6 °F 30.3 in WSW 6 mph 8 mph 98 % 0 in
15:57 41.4 °F 40.8 °F 30.3 in West 2 mph 9 mph 98 % 0 in
16:02 41.4 °F 40.8 °F 30.3 in SW 4 mph 9 mph 98 % 0 in
16:07 41.4 °F 40.8 °F 30.3 in WSW 3 mph 9 mph 98 % 0 in
16:12 41.4 °F 40.8 °F 30.3 in SSW 3 mph 8 mph 98 % 0 in
16:17 41.4 °F 40.8 °F 30.3 in SW 2 mph 7 mph 98 % 0 in
16:22 41.4 °F 40.8 °F 30.3 in WSW 2 mph 7 mph 98 % 0 in
16:27 41.4 °F 40.8 °F 30.3 in SW 4 mph 7 mph 98 % 0 in
16:37 41.5 °F 41 °F 30.3 in Calm   6 mph 98 % 0 in
16:42 41.5 °F 41 °F 30.3 in Calm   6 mph 98 % 0 in
16:47 41.5 °F 41 °F 30.3 in South 1 mph 3 mph 98 % 0 in
16:52 41.5 °F 41 °F 30.3 in SSW 1 mph 2 mph 98 % 0 in
16:57 41.5 °F 41 °F 30.3 in Calm   5 mph 98 % 0 in
17:02 41.5 °F 41 °F 30.3 in WSW 2 mph 5 mph 98 % 0 in
17:07 41.5 °F 41 °F 30.3 in SW 5 mph 5 mph 98 % 0 in
17:12 41.7 °F 41.2 °F 30.3 in SW 4 mph 6 mph 98 % 0 in
17:17 41.7 °F 41.2 °F 30.3 in SW 3 mph 8 mph 98 % 0 in
17:22 41.7 °F 41.2 °F 30.3 in SW 1 mph 8 mph 98 % 0 in
17:32 41.7 °F 41.2 °F 30.3 in South 1 mph 6 mph 98 % 0 in
17:42 41.7 °F 41.2 °F 30.3 in WSW 3 mph 8 mph 98 % 0 in
17:52 41.7 °F 41.2 °F 30.3 in SW 3 mph 8 mph 98 % 0.01 in
17:57 41.7 °F 41.2 °F 30.3 in South 5 mph 8 mph 98 % 0.02 in
18:02 41.7 °F 41.2 °F 30.3 in WSW 4 mph 8 mph 98 % 0.02 in
18:12 41.7 °F 41.2 °F 30.3 in SW 4 mph 7 mph 98 % 0.02 in
18:17 41.7 °F 41.2 °F 30.3 in SW 5 mph 7 mph 98 % 0.02 in
18:22 41.7 °F 41.2 °F 30.3 in SW 6 mph 8 mph 98 % 0.02 in
18:27 41.7 °F 41.2 °F 30.2 in SW 4 mph 8 mph 98 % 0.02 in
18:32 41.7 °F 41.2 °F 30.2 in SW 4 mph 10 mph 98 % 0.02 in
18:37 41.5 °F 41 °F 30.2 in SSW 2 mph 10 mph 98 % 0.02 in
18:47 41.7 °F 41.2 °F 30.2 in SW 6 mph 8 mph 98 % 0.01 in
18:52 41.7 °F 41.2 °F 30.2 in SW 6 mph 9 mph 98 % 0 in
19:02 41.5 °F 41 °F 30.2 in SW 5 mph 10 mph 98 % 0 in
19:07 41.5 °F 41 °F 30.2 in WSW 2 mph 9 mph 98 % 0 in
19:12 41.7 °F 41.2 °F 30.2 in SW 3 mph 8 mph 98 % 0 in
19:22 41.7 °F 41.2 °F 30.2 in SSW 2 mph 8 mph 98 % 0 in
19:27 41.7 °F 41.2 °F 30.2 in WSW 3 mph 8 mph 98 % 0 in
19:32 41.7 °F 41.2 °F 30.2 in SW 3 mph 8 mph 98 % 0 in
19:42 41.5 °F 41 °F 30.2 in SW 2 mph 7 mph 98 % 0 in
19:47 41.5 °F 41 °F 30.2 in SW 1 mph 5 mph 98 % 0 in
19:52 41.5 °F 41 °F 30.2 in SSW 3 mph 5 mph 98 % 0 in
19:57 41.5 °F 41 °F 30.2 in SW 6 mph 6 mph 98 % 0 in
20:02 41.5 °F 41 °F 30.2 in SSW 2 mph 7 mph 98 % 0 in
20:07 41.5 °F 41 °F 30.2 in SSW 4 mph 7 mph 98 % 0 in
20:12 41.4 °F 40.8 °F 30.2 in SSW 2 mph 7 mph 98 % 0 in
20:17 41.5 °F 41 °F 30.2 in SW 5 mph 6 mph 98 % 0 in
20:22 41.5 °F 41 °F 30.2 in SW 5 mph 10 mph 98 % 0 in
20:32 41.5 °F 41 °F 30.2 in SSW 5 mph 10 mph 98 % 0 in
20:37 41.5 °F 41 °F 30.2 in South 3 mph 9 mph 98 % 0 in
20:42 41.5 °F 41 °F 30.2 in SSW 4 mph 9 mph 98 % 0 in
20:52 41.5 °F 41 °F 30.2 in South 4 mph 9 mph 98 % 0 in
21:02 41.5 °F 41 °F 30.2 in SW 4 mph 9 mph 98 % 0 in
21:12 41.5 °F 41 °F 30.2 in SW 5 mph 8 mph 98 % 0.01 in
21:17 41.5 °F 41 °F 30.2 in SW 9 mph 9 mph 98 % 0.01 in
21:22 41.5 °F 41 °F 30.2 in SW 5 mph 10 mph 98 % 0.01 in
21:27 41.5 °F 41 °F 30.2 in SSW 5 mph 10 mph 98 % 0.01 in
21:32 41.5 °F 41 °F 30.2 in SW 2 mph 10 mph 98 % 0.01 in
21:42 41.7 °F 41.2 °F 30.1 in SSW 1 mph 8 mph 98 % 0.01 in
21:47 41.7 °F 41.2 °F 30.1 in SW 3 mph 8 mph 98 % 0.01 in
21:52 41.7 °F 41.2 °F 30.1 in SW 4 mph 7 mph 98 % 0.01 in
22:02 41.7 °F 41.2 °F 30.1 in SW 4 mph 10 mph 98 % 0.01 in
22:07 41.7 °F 41.2 °F 30.1 in SW 6 mph 10 mph 98 % 0 in
22:17 41.7 °F 41.2 °F 30.1 in WSW 3 mph 11 mph 98 % 0 in
22:22 41.7 °F 41.2 °F 30.1 in WSW 8 mph 11 mph 98 % 0 in
22:27 41.7 °F 41.2 °F 30.1 in SW 8 mph 13 mph 98 % 0 in
22:32 41.7 °F 41.2 °F 30.1 in SSW 5 mph 13 mph 98 % 0 in
22:42 41.7 °F 41.2 °F 30.1 in SW 5 mph 11 mph 98 % 0 in
22:47 41.5 °F 41 °F 30.1 in SW 3 mph 11 mph 98 % 0 in
22:57 41.5 °F 41 °F 30.1 in SW 10 mph 10 mph 98 % 0.01 in
23:02 41.7 °F 41.2 °F 30.1 in WSW 7 mph 12 mph 98 % 0.01 in
23:12 41.7 °F 41.2 °F 30.1 in SW 4 mph 14 mph 98 % 0.01 in
23:17 41.7 °F 41.2 °F 30.1 in WSW 5 mph 14 mph 98 % 0.01 in
23:27 41.7 °F 41.2 °F 30.1 in WSW 9 mph 11 mph 98 % 0.02 in
23:32 41.7 °F 41.2 °F 30.1 in SW 3 mph 11 mph 98 % 0.02 in
23:37 41.7 °F 41.2 °F 30.1 in SW 2 mph 11 mph 98 % 0.02 in
23:42 41.7 °F 41.2 °F 30.1 in SSW 4 mph 10 mph 98 % 0.02 in
23:47 41.7 °F 41.2 °F 30.1 in WSW 3 mph 10 mph 98 % 0.02 in
23:52 41.7 °F 41.2 °F 30.1 in SW 5 mph 9 mph 98 % 0.02 in
23:57 41.9 °F 41.4 °F 30.1 in WSW 5 mph 10 mph 98 % 0.02 in
Meteo18
Compliments of Weather Underground - 4 mb

Script developed by  Jim McMurry - jmcmurry@mwt.net Adapted for the template by  Wim van der Kuil - Leuven-Template.eu

You find our weather info also at:

European Weather Network

Weather Underground

Equipment we use:

Weather-station
Davis Vue

Weather-program
Meteohub

Weather-server
Raspberry PI 2 B+

Provider
1 and 1

Davis Vue

Meteohub

Raspberry PI 2 B+

1 and 1